Koran, Louisiana
Current Conditions -  °F | °C
As of 2:46 AM on Sunday 23 Nov 2014 (Local Time) from KBAD Reporting Station
Overcast Overcast  
Wind Chill: 61°   Ceiling: 800
Heat Index: 61°   Visibility: 10mi
Dew Point: 61°   Wind: 10mph
Humidity: 100%   Direction: 130°SE
Pressure: 29.69"   Gusts: NA
Location:  32.5391°N, 93.5257°W
Report Text: KBAD 230846Z AUTO 13009KT 10SM OVC008 16/16 A2969 RMK AO2 RAE0846 CIG 008V011
Loading
Personal Weather Stations






























Interactive Weather Map New forecast layout! Learn more

10-Day Weather Forecast

Advertisements
Track Severe Weather on mobile